createdAt,value
2022-09-12T00:00:54.057Z,26.7
2022-09-12T00:01:57.663Z,28.3
2022-09-12T00:04:01.456Z,23.6
2022-09-12T00:06:05.284Z,22.9
2022-09-12T00:08:09.131Z,22.5
2022-09-12T00:10:17.883Z,27.7
2022-09-12T00:14:25.518Z,20.8
2022-09-12T00:16:29.481Z,27.3
2022-09-12T00:18:33.215Z,21.7
2022-09-12T00:20:37.091Z,26.3
2022-09-12T00:22:40.898Z,23.9
2022-09-12T00:24:48.024Z,29.6
2022-09-12T00:26:51.866Z,24.5
2022-09-12T00:28:55.725Z,24.9
2022-09-12T00:30:59.579Z,22.9
2022-09-12T00:33:03.401Z,24.3
2022-09-12T00:35:07.259Z,24.3
2022-09-12T00:37:11.091Z,30.6
2022-09-12T00:39:18.213Z,31.4
2022-09-12T00:41:22.076Z,29.2
2022-09-12T00:43:25.921Z,28.2
2022-09-12T00:45:29.777Z,30.7
2022-09-12T00:47:33.574Z,24.4
2022-09-12T00:49:37.438Z,33.1
2022-09-12T00:51:41.293Z,41.5
2022-09-12T00:53:48.452Z,32.8
2022-09-12T00:55:52.286Z,24.3
2022-09-12T00:57:56.121Z,28
2022-09-12T00:58:59.677Z,30.2
2022-09-12T01:01:03.643Z,28
2022-09-12T01:03:07.357Z,25.6
2022-09-12T01:07:18.355Z,33.2
2022-09-12T01:11:26.036Z,22.4
2022-09-12T01:13:29.884Z,25.1
2022-09-12T01:15:33.724Z,26.5
2022-09-12T01:17:37.730Z,27.5
2022-09-12T01:21:48.539Z,23.6
2022-09-12T01:23:52.387Z,27.1
2022-09-12T01:25:56.233Z,25.1
2022-09-12T01:28:00.105Z,28.4
2022-09-12T01:30:03.944Z,23.2
2022-09-12T01:32:07.818Z,24
2022-09-12T01:36:18.782Z,23.5
2022-09-12T01:38:22.605Z,26
2022-09-12T01:42:30.312Z,24
2022-09-12T01:46:37.993Z,26.8
2022-09-12T01:50:48.981Z,26
2022-09-12T01:52:52.841Z,25.6
2022-09-12T01:54:56.656Z,24
2022-09-12T01:57:21.591Z,27.1
2022-09-12T02:01:29.299Z,28.7
2022-09-12T02:09:47.937Z,24.7
2022-09-12T02:15:59.419Z,28
2022-09-12T02:20:17.578Z,22.6
2022-09-12T02:24:18.061Z,26.5
2022-09-12T02:32:36.665Z,31
2022-09-12T02:34:40.499Z,26.6
2022-09-12T02:36:44.324Z,28.8
2022-09-12T02:38:48.149Z,24.7
2022-09-12T02:40:52.031Z,30.7
2022-09-12T02:42:55.845Z,26.4
2022-09-12T02:44:59.676Z,24.7
2022-09-12T02:47:06.796Z,26.2
2022-09-12T02:49:10.650Z,26.6
2022-09-12T02:51:14.442Z,25.1
2022-09-12T02:52:18.033Z,29.9
2022-09-12T02:54:21.861Z,29.7
2022-09-12T02:56:25.699Z,27.6
2022-09-12T02:58:29.542Z,27.7
2022-09-12T03:00:36.636Z,32
2022-09-12T03:02:40.523Z,27.3
2022-09-12T03:04:44.373Z,23.8
2022-09-12T03:06:48.191Z,32.7
2022-09-12T03:08:52.037Z,28.7
2022-09-12T03:10:55.861Z,29.1
2022-09-12T03:12:59.702Z,27.5
2022-09-12T03:17:10.619Z,36.8
2022-09-12T03:19:14.463Z,27.3
2022-09-12T03:21:18.296Z,30.8
2022-09-12T03:23:22.145Z,32.6
2022-09-12T03:25:26.002Z,42
2022-09-12T03:27:29.852Z,34.1
2022-09-12T03:33:44.619Z,36.1
2022-09-12T03:35:48.452Z,36.1
2022-09-12T03:39:56.173Z,39.5
2022-09-12T03:48:14.825Z,41.5
2022-09-12T03:49:18.376Z,40.2
2022-09-12T03:51:22.203Z,41.3
2022-09-12T03:53:26.046Z,42.3
2022-09-12T03:55:29.894Z,39.4
2022-09-12T03:57:37.008Z,38.1
2022-09-12T03:59:40.859Z,46.3
2022-09-12T04:01:44.699Z,47.1
2022-09-12T04:03:48.554Z,37.5
2022-09-12T04:05:52.367Z,43.7
2022-09-12T04:07:56.216Z,40
2022-09-12T04:10:00.047Z,43.6
2022-09-12T04:16:14.900Z,44.4
2022-09-12T04:18:18.687Z,38.3
2022-09-12T04:20:22.512Z,38.9
2022-09-12T04:22:26.429Z,45.1
2022-09-12T04:26:37.269Z,46
2022-09-12T04:41:07.394Z,59.9
2022-09-12T04:43:14.402Z,56.4
2022-09-12T04:45:15.095Z,56.3
2022-09-12T04:46:18.662Z,64.6
2022-09-12T04:48:22.492Z,63.5
2022-09-12T04:52:30.183Z,58
2022-09-12T04:54:37.259Z,60.5
2022-09-12T04:56:41.117Z,62.3
2022-09-12T04:58:45.020Z,63.9
2022-09-12T05:00:48.833Z,53.1
2022-09-12T05:02:52.637Z,52
2022-09-12T05:04:56.456Z,58.8
2022-09-12T05:09:07.413Z,60.2
2022-09-12T05:11:11.237Z,49.6
2022-09-12T05:13:15.105Z,53.2
2022-09-12T05:15:18.921Z,49.6
2022-09-12T05:19:26.599Z,57.9
2022-09-12T05:23:37.664Z,62.1
2022-09-12T05:25:41.375Z,56.7
2022-09-12T05:27:48.621Z,52
2022-09-12T05:29:49.083Z,56.7
2022-09-12T05:33:56.755Z,47.7
2022-09-12T18:17:04.988Z,7.6
2022-09-12T18:19:08.698Z,5.9
2022-09-12T18:21:12.460Z,6.2
2022-09-12T18:23:40.636Z,7.6
2022-09-12T18:25:44.416Z,6.8
2022-09-12T18:27:48.160Z,7.2
2022-09-12T18:30:10.633Z,6.5
2022-09-12T18:31:59.014Z,7.5
2022-09-12T18:34:02.855Z,6.5
2022-09-12T18:36:06.523Z,6.3
2022-09-12T18:38:10.276Z,5.8
2022-09-12T18:40:14.267Z,5.7
2022-09-12T18:42:17.812Z,6.4
2022-09-12T18:44:24.848Z,10
2022-09-12T18:46:28.842Z,5.8
2022-09-12T18:48:32.393Z,5.9
2022-09-12T18:50:36.147Z,7
2022-09-12T18:52:39.896Z,7
2022-09-12T18:54:43.674Z,6.9
2022-09-12T18:56:47.457Z,10.9
2022-09-12T18:58:54.543Z,7.2
2022-09-12T19:00:58.341Z,6.8
2022-09-12T19:03:02.065Z,7.3
2022-09-12T19:07:09.615Z,7.1
2022-09-12T19:09:13.401Z,7
2022-09-12T19:11:17.192Z,6.4
2022-09-12T19:13:24.248Z,9.2
2022-09-12T19:15:28.045Z,7.1
2022-09-12T19:17:31.831Z,7.3
2022-09-12T19:20:39.153Z,9.2
2022-09-12T19:22:43.073Z,7.5
2022-09-12T19:24:46.748Z,8.8
2022-09-12T19:26:53.831Z,7.8
2022-09-12T19:28:57.596Z,11.6
2022-09-12T19:31:01.468Z,9.2
2022-09-12T19:33:05.166Z,12.5
2022-09-12T19:35:08.941Z,8.5
2022-09-12T19:37:12.735Z,9
2022-09-12T19:39:16.549Z,8.8
2022-09-12T19:41:23.626Z,8.3
2022-09-12T19:43:27.440Z,8.8
2022-09-12T19:45:31.198Z,9.2
2022-09-12T19:47:34.973Z,8.8
2022-09-12T19:49:38.769Z,9.9
2022-09-12T19:51:42.551Z,8.3
2022-09-12T19:53:46.366Z,9.9
2022-09-12T20:00:00.980Z,8.4
2022-09-12T20:04:08.559Z,14
2022-09-12T20:06:12.367Z,8
2022-09-12T20:08:16.159Z,7.9
2022-09-12T20:10:23.216Z,9.7
2022-09-12T20:12:27.000Z,11.1
2022-09-12T20:14:30.806Z,8.6
2022-09-12T20:15:34.350Z,13.4
2022-09-12T20:17:38.175Z,8.5
2022-09-12T20:19:41.990Z,8.6
2022-09-12T20:21:45.775Z,12.7
2022-09-12T20:23:52.856Z,8.5
2022-09-12T20:25:56.623Z,9.7
2022-09-12T20:28:00.506Z,8.3
2022-09-12T20:30:04.230Z,12.5
2022-09-12T20:32:08.040Z,9.4
2022-09-12T20:34:11.847Z,9.5
2022-09-12T20:36:15.638Z,9.3
2022-09-12T20:38:22.745Z,9.7
2022-09-12T20:40:26.576Z,8.7
2022-09-12T20:42:30.328Z,10.9
2022-09-12T20:44:34.139Z,9.3
2022-09-12T20:46:38.014Z,9.4
2022-09-12T20:48:41.779Z,9
2022-09-12T20:50:45.553Z,11
2022-09-12T20:52:52.616Z,13
2022-09-12T20:54:56.388Z,8.4
2022-09-12T20:57:00.202Z,10.1
2022-09-12T20:59:03.984Z,9.3
2022-09-12T21:01:07.806Z,10.9
2022-09-12T21:03:11.600Z,9.3
2022-09-12T21:05:15.400Z,8.6
2022-09-12T21:11:30.122Z,9.8
2022-09-12T21:12:33.644Z,9.8
2022-09-12T21:14:37.452Z,8.7
2022-09-12T21:16:41.245Z,13.5
2022-09-12T21:18:46.895Z,11.6
2022-09-12T21:22:56.232Z,9.9
2022-09-12T21:25:00.027Z,10.2
2022-09-12T21:27:04.518Z,10.3
2022-09-12T21:29:07.652Z,10.4
2022-09-12T21:31:11.565Z,11.7
2022-09-12T21:33:15.247Z,9.4
2022-09-12T21:35:22.359Z,11.4
2022-09-12T21:39:29.962Z,9.4
2022-09-12T21:43:37.664Z,10.3
2022-09-12T21:49:52.278Z,18.2
2022-09-12T21:53:59.889Z,10.7
2022-09-12T21:56:03.711Z,11.3
2022-09-12T21:58:07.508Z,11.5
2022-09-12T22:00:11.347Z,10.7
2022-09-12T22:02:15.179Z,11.1
2022-09-12T22:04:22.260Z,14.5
2022-09-12T22:06:26.065Z,11
2022-09-12T22:08:29.875Z,9.7
2022-09-12T22:10:54.276Z,15
2022-09-12T22:12:58.064Z,12.3
2022-09-12T22:15:17.544Z,19.4
2022-09-12T22:17:08.976Z,15.8
2022-09-12T22:19:12.767Z,12.7
2022-09-12T22:21:16.584Z,12.6
2022-09-12T22:23:24.559Z,11.8
2022-09-12T22:25:24.214Z,9.3
2022-09-12T22:27:28.010Z,9.4
2022-09-12T22:29:31.852Z,9.6
2022-09-12T22:31:38.926Z,12.4
2022-09-12T22:33:42.723Z,9.3
2022-09-12T22:35:46.510Z,12.2
2022-09-12T22:37:50.436Z,10.2
2022-09-12T22:39:54.197Z,10.4
2022-09-12T22:41:57.928Z,14.6
2022-09-12T22:44:01.727Z,10
2022-09-12T22:46:08.894Z,11.5
2022-09-12T22:48:12.624Z,9
2022-09-12T22:50:16.463Z,9.7
2022-09-12T22:52:20.243Z,9.5
2022-09-12T22:54:24.054Z,9.1
2022-09-12T22:56:27.859Z,9.5
2022-09-12T22:58:31.661Z,9.5
2022-09-12T23:00:38.816Z,9.8
2022-09-12T23:02:42.549Z,8.8
2022-09-12T23:04:46.355Z,10.9
2022-09-12T23:05:49.878Z,9.8
2022-09-12T23:07:53.694Z,9.6
2022-09-12T23:09:57.494Z,11
2022-09-12T23:12:01.308Z,10
2022-09-12T23:14:08.397Z,9.9
2022-09-12T23:16:12.246Z,10.1
2022-09-12T23:18:16.007Z,8.6
2022-09-12T23:20:19.830Z,9
2022-09-12T23:22:23.645Z,9.1
2022-09-12T23:24:27.602Z,11.1
2022-09-12T23:26:31.232Z,9.1
2022-09-12T23:28:38.311Z,10
2022-09-12T23:34:49.683Z,8.1
2022-09-12T23:36:53.493Z,15.3
2022-09-12T23:38:57.298Z,10.2
2022-09-12T23:43:08.197Z,8.4
2022-09-12T23:55:31.004Z,10.7
2022-09-12T23:57:38.095Z,8.2
2022-09-12T23:59:41.902Z,8.7
